createdAt,value
2018-11-23T00:00:37.828Z,101371.38
2018-11-23T00:03:08.162Z,101373.97
2018-11-23T00:05:38.206Z,101372.68
2018-11-23T00:08:08.523Z,101373.58
2018-11-23T00:10:38.644Z,101374.00
2018-11-23T00:13:28.326Z,101375.33
2018-11-23T00:15:58.224Z,101374.89
2018-11-23T00:18:28.403Z,101383.17
2018-11-23T00:20:58.530Z,101376.21
2018-11-23T00:23:28.397Z,101380.58
2018-11-23T00:25:59.206Z,101387.11
2018-11-23T00:28:29.384Z,101387.09
2018-11-23T00:30:59.096Z,101388.85
2018-11-23T00:33:30.814Z,101394.47
2018-11-23T00:36:01.039Z,101395.77
2018-11-23T00:41:20.210Z,101400.13
2018-11-23T00:43:50.329Z,101393.61
2018-11-23T00:49:16.433Z,101405.80
2018-11-23T00:54:44.911Z,101407.52
2018-11-23T00:57:33.844Z,101397.53
2018-11-23T01:00:03.944Z,101407.09
2018-11-23T01:03:12.960Z,101402.31
2018-11-23T01:05:44.037Z,101397.54
2018-11-23T01:08:14.007Z,101399.30
2018-11-23T01:10:43.980Z,101396.25
2018-11-23T01:13:13.939Z,101399.73
2018-11-23T01:15:44.099Z,101394.52
2018-11-23T01:18:14.085Z,101398.45
2018-11-23T01:20:44.126Z,101402.34
2018-11-23T01:23:14.117Z,101399.75
2018-11-23T01:26:03.000Z,101404.52
2018-11-23T01:28:32.965Z,101400.19
2018-11-23T01:31:02.970Z,101400.19
2018-11-23T01:33:32.988Z,101408.01
2018-11-23T01:36:03.082Z,101405.41
2018-11-23T01:38:33.055Z,101403.69
2018-11-23T01:41:02.998Z,101403.23
2018-11-23T01:43:51.447Z,101403.69
2018-11-23T01:46:22.182Z,101400.63
2018-11-23T01:49:12.807Z,101395.00
2018-11-23T01:52:02.894Z,101400.63
2018-11-23T01:54:32.935Z,101400.63
2018-11-23T01:57:04.382Z,101398.48
2018-11-23T01:59:34.659Z,101400.63
2018-11-23T02:02:04.467Z,101395.86
2018-11-23T02:04:35.029Z,101395.86
2018-11-23T02:07:05.019Z,101393.26
2018-11-23T02:09:35.052Z,101382.84
2018-11-23T02:12:05.136Z,101385.87
2018-11-23T02:14:35.246Z,101386.75
2018-11-23T02:17:05.283Z,101388.90
2018-11-23T02:19:35.347Z,101388.07
2018-11-23T02:22:05.839Z,101394.11
2018-11-23T02:24:39.534Z,101391.52
2018-11-23T02:27:28.232Z,101388.92
2018-11-23T02:29:58.656Z,101390.67
2018-11-23T02:32:28.761Z,101388.50
2018-11-23T02:34:59.074Z,101388.92
2018-11-23T02:37:28.907Z,101387.20
2018-11-23T02:39:59.777Z,101393.70
2018-11-23T02:42:29.794Z,101394.58
2018-11-23T02:44:59.848Z,101390.23
2018-11-23T02:47:30.012Z,101394.12
2018-11-23T02:50:00.383Z,101384.17
2018-11-23T02:52:30.570Z,101391.53
2018-11-23T02:55:25.201Z,101387.62
2018-11-23T02:57:55.060Z,101377.23
2018-11-23T03:00:25.344Z,101378.52
2018-11-23T03:03:15.335Z,101378.97
2018-11-23T03:05:45.827Z,101382.02
2018-11-23T03:08:15.676Z,101381.16
2018-11-23T03:10:45.559Z,101379.86
2018-11-23T03:13:15.735Z,101384.19
2018-11-23T03:15:45.770Z,101381.17
2018-11-23T03:18:15.801Z,101383.33
2018-11-23T03:20:57.659Z,101382.48
2018-11-23T03:23:42.373Z,101382.92
2018-11-23T03:26:12.270Z,101373.81
2018-11-23T03:31:59.722Z,101369.49
2018-11-23T03:34:29.940Z,101366.88
2018-11-23T03:37:00.104Z,101365.59
2018-11-23T03:39:36.630Z,101369.48
2018-11-23T03:42:07.741Z,101368.61
2018-11-23T03:44:37.791Z,101369.92
2018-11-23T03:47:07.977Z,101362.13
2018-11-23T03:49:38.232Z,101363.84
2018-11-23T03:52:08.190Z,101367.75
2018-11-23T03:55:00.663Z,101361.67
2018-11-23T03:57:31.616Z,101368.63
2018-11-23T04:00:01.785Z,101362.13
2018-11-23T04:02:31.786Z,101372.08
2018-11-23T04:08:53.435Z,101374.26
2018-11-23T04:11:49.583Z,101370.36
2018-11-23T04:14:38.350Z,101366.45
2018-11-23T04:17:27.474Z,101370.78
2018-11-23T04:19:57.763Z,101378.16
2018-11-23T04:22:27.602Z,101368.63
2018-11-23T04:24:57.622Z,101369.48
2018-11-23T04:27:27.925Z,101362.53
2018-11-23T04:29:57.968Z,101356.02
2018-11-23T04:32:28.183Z,101346.06
2018-11-23T04:34:58.316Z,101346.05
2018-11-23T04:37:28.603Z,101352.55
2018-11-23T04:39:58.703Z,101352.09
2018-11-23T04:42:28.931Z,101356.02
2018-11-23T04:44:59.650Z,101348.23
2018-11-23T04:47:30.017Z,101349.98
2018-11-23T04:49:59.937Z,101345.20
2018-11-23T04:55:21.793Z,101352.14
2018-11-23T04:57:53.713Z,101358.22
2018-11-23T05:00:22.014Z,101367.33
2018-11-23T05:02:51.957Z,101357.34
2018-11-23T05:05:22.660Z,101353.41
2018-11-23T05:07:52.996Z,101349.49
2018-11-23T05:13:29.538Z,101351.61
2018-11-23T05:16:10.536Z,101354.23
2018-11-23T05:18:40.801Z,101358.53
2018-11-23T05:21:30.149Z,101358.95
2018-11-23T05:24:00.524Z,101358.12
2018-11-23T05:26:33.070Z,101362.84
2018-11-23T05:29:03.894Z,101365.91
2018-11-23T05:31:34.026Z,101352.00
2018-11-23T05:34:22.750Z,101357.63
2018-11-23T05:36:53.051Z,101348.06
2018-11-23T05:39:23.159Z,101343.70
2018-11-23T05:41:53.280Z,101335.02
2018-11-23T05:44:23.261Z,101336.77
2018-11-23T05:47:04.567Z,101335.45
2018-11-23T05:49:34.651Z,101328.48
2018-11-23T05:54:54.713Z,101328.05
2018-11-23T05:57:26.213Z,101334.14
2018-11-23T05:59:59.087Z,101322.41
2018-11-23T06:05:25.204Z,101315.46
2018-11-23T06:07:55.528Z,101312.44
2018-11-23T06:10:25.715Z,101309.85
2018-11-23T06:12:55.928Z,101308.99
2018-11-23T06:15:26.518Z,101317.66
2018-11-23T06:18:15.801Z,101308.61
2018-11-23T06:20:46.063Z,101317.27
2018-11-23T06:23:16.363Z,101316.45
2018-11-23T06:26:25.264Z,101319.47
2018-11-23T06:28:55.303Z,101312.56
2018-11-23T06:34:20.966Z,101311.69
2018-11-23T06:36:51.530Z,101313.39
2018-11-23T06:39:21.862Z,101316.02
2018-11-23T06:45:08.125Z,101327.75
2018-11-23T06:47:38.581Z,101323.84
2018-11-23T06:50:12.109Z,101333.84
2018-11-23T06:52:42.503Z,101342.05
2018-11-23T06:55:13.075Z,101338.16
2018-11-23T06:57:43.367Z,101337.30
2018-11-23T07:00:32.348Z,101336.41
2018-11-23T07:03:02.310Z,101332.94
2018-11-23T07:05:32.662Z,101335.12
2018-11-23T07:08:02.740Z,101338.13
2018-11-23T07:10:34.606Z,101336.81
2018-11-23T07:13:04.701Z,101342.02
2018-11-23T07:15:34.579Z,101348.99
2018-11-23T07:18:04.567Z,101342.48
2018-11-23T07:20:36.287Z,101345.50
2018-11-23T07:23:06.506Z,101353.72
2018-11-23T07:25:38.706Z,101343.76
2018-11-23T07:28:15.093Z,101346.33
2018-11-23T07:30:39.552Z,101342.84
2018-11-23T07:33:09.545Z,101342.83
2018-11-23T07:35:39.472Z,101345.01
2018-11-23T07:38:09.379Z,101348.87
2018-11-23T07:41:17.102Z,101343.66
2018-11-23T07:43:47.246Z,101343.23
2018-11-23T07:46:17.343Z,101336.30
2018-11-23T07:48:47.627Z,101338.40
2018-11-23T07:51:17.727Z,101331.89
2018-11-23T07:53:47.910Z,101342.30
2018-11-23T07:56:18.089Z,101341.42
2018-11-23T07:58:49.404Z,101339.68
2018-11-23T08:01:19.938Z,101337.49
2018-11-23T08:03:50.037Z,101342.69
2018-11-23T08:06:38.910Z,101343.09
2018-11-23T08:09:13.231Z,101345.71
2018-11-23T08:11:43.811Z,101347.42
2018-11-23T08:14:18.655Z,101347.38
2018-11-23T08:16:49.321Z,101340.86
2018-11-23T08:19:19.550Z,101338.67
2018-11-23T08:24:38.984Z,101336.88
2018-11-23T08:27:09.676Z,101340.33
2018-11-23T08:29:39.596Z,101341.16
2018-11-23T08:32:09.695Z,101339.41
2018-11-23T08:34:39.875Z,101338.50
2018-11-23T08:37:28.811Z,101339.75
2018-11-23T08:40:20.922Z,101335.36
2018-11-23T08:43:10.388Z,101336.98
2018-11-23T08:45:59.236Z,101338.25
2018-11-23T08:48:31.637Z,101340.81
2018-11-23T08:51:01.690Z,101335.89
2018-11-23T08:53:51.129Z,101338.02
2018-11-23T08:56:21.501Z,101335.72
2018-11-23T08:59:10.375Z,101335.69
2018-11-23T09:01:40.918Z,101338.26
2018-11-23T09:04:11.032Z,101345.52
2018-11-23T09:06:43.711Z,101341.98
2018-11-23T09:09:14.541Z,101343.27
2018-11-23T09:11:44.968Z,101343.70
2018-11-23T09:14:15.015Z,101334.89
2018-11-23T09:16:45.076Z,101335.28
2018-11-23T09:19:15.654Z,101345.66
2018-11-23T09:21:45.527Z,101339.48
2018-11-23T09:24:15.572Z,101339.80
2018-11-23T09:29:35.095Z,101335.70
2018-11-23T09:32:05.461Z,101335.24
2018-11-23T09:34:54.066Z,101325.98
2018-11-23T09:37:24.169Z,101323.39
2018-11-23T09:40:12.907Z,101321.98
2018-11-23T09:42:43.225Z,101317.44
2018-11-23T09:45:15.725Z,101325.56
2018-11-23T09:47:46.597Z,101321.56
2018-11-23T09:50:20.689Z,101313.23
2018-11-23T09:52:52.197Z,101310.53
2018-11-23T09:55:27.699Z,101312.11
2018-11-23T09:57:57.807Z,101313.23
2018-11-23T10:00:47.310Z,101314.94
2018-11-23T10:03:17.970Z,101306.38
2018-11-23T10:06:06.779Z,101297.89
2018-11-23T10:08:37.521Z,101294.58
2018-11-23T10:11:06.805Z,101295.59
2018-11-23T10:13:36.748Z,101293.94
2018-11-23T10:16:08.830Z,101296.70
2018-11-23T10:18:38.822Z,101297.15
2018-11-23T10:21:09.263Z,101286.42
2018-11-23T10:23:39.587Z,101281.37
2018-11-23T10:26:09.438Z,101283.45
2018-11-23T10:28:39.718Z,101287.68
2018-11-23T10:31:09.574Z,101289.31
2018-11-23T10:36:37.833Z,101279.92
2018-11-23T10:39:08.768Z,101282.39
2018-11-23T10:41:38.629Z,101284.39
2018-11-23T10:44:08.696Z,101267.18
2018-11-23T10:49:08.923Z,101256.56
2018-11-23T10:51:38.962Z,101254.00
2018-11-23T10:54:09.319Z,101258.88
2018-11-23T10:56:39.072Z,101251.19
2018-11-23T10:59:09.028Z,101253.90
2018-11-23T11:01:57.593Z,101251.44
2018-11-23T11:04:48.591Z,101245.78
2018-11-23T11:07:18.695Z,101239.88
2018-11-23T11:09:48.689Z,101234.09
2018-11-23T11:12:18.827Z,101230.53
2018-11-23T11:17:32.438Z,101204.36
2018-11-23T11:20:02.628Z,101201.36
2018-11-23T11:22:51.416Z,101197.26
2018-11-23T11:25:21.406Z,101199.58
2018-11-23T11:27:51.351Z,101206.16
2018-11-23T11:30:21.628Z,101200.14
2018-11-23T11:32:51.769Z,101204.33
2018-11-23T11:35:21.771Z,101204.47
2018-11-23T11:37:52.167Z,101198.33
2018-11-23T11:40:22.461Z,101197.23
2018-11-23T11:42:52.351Z,101190.98
2018-11-23T11:48:27.062Z,101189.50
2018-11-23T11:50:57.286Z,101177.75
2018-11-23T11:53:45.844Z,101176.33
2018-11-23T11:56:16.168Z,101174.00
2018-11-23T11:58:46.188Z,101171.76
2018-11-23T12:01:16.362Z,101166.55
2018-11-23T12:04:05.602Z,101175.16
2018-11-23T12:06:36.557Z,101174.04
2018-11-23T12:09:10.206Z,101167.34
2018-11-23T12:11:40.081Z,101167.77
2018-11-23T12:14:10.057Z,101170.59
2018-11-23T12:16:40.545Z,101165.52
2018-11-23T12:19:10.565Z,101156.66
2018-11-23T12:21:40.923Z,101152.03
2018-11-23T12:24:10.912Z,101149.25
2018-11-23T12:26:40.817Z,101143.50
2018-11-23T12:29:10.843Z,101138.47
2018-11-23T12:31:40.933Z,101136.97
2018-11-23T12:34:10.915Z,101140.16
2018-11-23T12:36:40.918Z,101139.69
2018-11-23T12:39:10.734Z,101134.24
2018-11-23T12:41:40.688Z,101132.95
2018-11-23T12:44:10.696Z,101133.48
2018-11-23T12:46:40.788Z,101134.89
2018-11-23T12:49:10.725Z,101131.28
2018-11-23T12:51:42.698Z,101126.73
2018-11-23T12:54:23.658Z,101126.75
2018-11-23T12:56:53.505Z,101124.27
2018-11-23T12:59:23.402Z,101126.20
2018-11-23T13:01:53.373Z,101119.95
2018-11-23T13:04:23.337Z,101110.92
2018-11-23T13:06:53.522Z,101111.04
2018-11-23T13:09:23.611Z,101108.73
2018-11-23T13:11:53.492Z,101100.83
2018-11-23T13:14:23.387Z,101096.31
2018-11-23T13:16:53.427Z,101097.98
2018-11-23T13:19:23.208Z,101094.99
2018-11-23T13:21:53.135Z,101092.48
2018-11-23T13:27:52.343Z,101085.20
2018-11-23T13:30:41.009Z,101071.84
2018-11-23T13:33:11.015Z,101074.58
2018-11-23T13:35:59.944Z,101067.20
2018-11-23T13:38:32.113Z,101068.78
2018-11-23T13:41:02.329Z,101063.53
2018-11-23T13:43:32.548Z,101070.13
2018-11-23T13:46:02.712Z,101059.72
2018-11-23T13:48:32.770Z,101051.76
2018-11-23T13:51:02.742Z,101044.52
2018-11-23T13:53:32.741Z,101045.69
2018-11-23T13:56:02.773Z,101042.00
2018-11-23T13:58:32.950Z,101037.12
2018-11-23T14:04:06.801Z,101036.22
2018-11-23T14:06:36.747Z,101030.37
2018-11-23T14:09:10.771Z,101033.52
2018-11-23T14:11:41.745Z,101028.83
2018-11-23T14:14:12.474Z,101031.08
2018-11-23T14:16:42.513Z,101028.09
2018-11-23T14:19:12.400Z,101026.96
2018-11-23T14:21:42.415Z,101024.38
2018-11-23T14:24:12.445Z,101022.81
2018-11-23T14:26:42.372Z,101008.95
2018-11-23T14:29:23.693Z,101014.34
2018-11-23T14:31:53.933Z,101006.05
2018-11-23T14:34:24.079Z,101004.05
2018-11-23T14:36:54.224Z,101003.37
2018-11-23T14:39:24.530Z,100999.61
2018-11-23T14:41:54.641Z,100995.52
2018-11-23T14:44:24.588Z,100992.59
2018-11-23T14:46:55.721Z,100987.25
2018-11-23T14:49:25.832Z,100987.38
2018-11-23T14:51:55.803Z,100987.50
2018-11-23T14:54:42.679Z,100979.78
2018-11-23T14:57:19.070Z,100981.67
2018-11-23T14:59:49.827Z,100986.74
2018-11-23T15:02:40.911Z,100983.47
2018-11-23T15:05:10.994Z,100987.52
2018-11-23T15:07:41.153Z,100989.56
2018-11-23T15:10:13.834Z,100996.78
2018-11-23T15:12:44.515Z,100993.34
2018-11-23T15:18:42.155Z,100993.52
2018-11-23T15:21:31.172Z,100995.64
2018-11-23T15:24:20.960Z,100995.31
2018-11-23T15:26:51.250Z,100991.56
2018-11-23T15:29:41.943Z,100995.69
2018-11-23T15:32:11.966Z,100992.75
2018-11-23T15:34:42.079Z,100990.30
2018-11-23T15:40:01.607Z,100988.58
2018-11-23T15:42:51.853Z,100988.75
2018-11-23T15:45:23.622Z,100985.36
2018-11-23T15:47:54.031Z,100983.41
2018-11-23T15:50:28.365Z,100977.47
2018-11-23T15:52:58.492Z,100973.16
2018-11-23T15:55:30.030Z,100973.52
2018-11-23T15:58:01.792Z,100976.05
2018-11-23T16:00:50.461Z,100975.17
2018-11-23T16:03:39.287Z,100980.88
2018-11-23T16:06:11.294Z,100976.72
2018-11-23T16:08:41.746Z,100977.44
2018-11-23T16:11:11.813Z,100975.42
2018-11-23T16:13:42.053Z,100970.33
2018-11-23T16:16:12.080Z,100977.41
2018-11-23T16:18:42.465Z,100968.84
2018-11-23T16:21:12.748Z,100970.38
2018-11-23T16:23:42.898Z,100969.63
2018-11-23T16:26:15.481Z,100967.98
2018-11-23T16:28:45.326Z,100966.78
2018-11-23T16:31:15.321Z,100969.08
2018-11-23T16:33:45.327Z,100968.80
2018-11-23T16:36:15.471Z,100968.03
2018-11-23T16:38:45.458Z,100968.53
2018-11-23T16:41:15.313Z,100966.72
2018-11-23T16:43:45.360Z,100954.07
2018-11-23T16:46:15.300Z,100953.78
2018-11-23T16:48:45.820Z,100960.95
2018-11-23T16:51:15.651Z,100961.06
2018-11-23T16:53:47.637Z,100957.28
2018-11-23T16:57:04.203Z,100961.88
2018-11-23T16:59:33.092Z,100958.92
2018-11-23T17:02:02.230Z,100960.30
2018-11-23T17:04:31.022Z,100957.33
2018-11-23T17:06:59.974Z,100956.11
2018-11-23T17:09:29.153Z,100955.34
2018-11-23T17:11:57.860Z,100953.69
2018-11-23T17:14:26.817Z,100957.26
2018-11-23T17:16:55.773Z,100954.73
2018-11-23T17:19:24.674Z,100952.58
2018-11-23T17:21:53.967Z,100952.20
2018-11-23T17:24:23.038Z,100955.70
2018-11-23T17:26:52.102Z,100956.30
2018-11-23T17:29:23.149Z,100957.22
2018-11-23T17:31:50.861Z,100958.14
2018-11-23T17:34:20.011Z,100954.27
2018-11-23T17:36:49.098Z,100954.84
2018-11-23T17:39:19.116Z,100954.80
2018-11-23T17:41:48.606Z,100953.48
2018-11-23T17:44:17.337Z,100953.53
2018-11-23T17:46:46.385Z,100955.34
2018-11-23T17:49:15.191Z,100951.05
2018-11-23T17:51:44.185Z,100951.50
2018-11-23T17:54:13.056Z,100947.11
2018-11-23T17:56:41.962Z,100947.21
2018-11-23T17:59:10.981Z,100942.55
2018-11-23T18:01:39.937Z,100944.41
2018-11-23T18:04:09.401Z,100934.77
2018-11-23T18:06:38.138Z,100933.95
2018-11-23T18:09:08.573Z,100927.45
2018-11-23T18:11:37.700Z,100924.22
2018-11-23T18:14:07.109Z,100917.61
2018-11-23T18:16:35.903Z,100924.13
2018-11-23T18:19:05.045Z,100914.55
2018-11-23T18:21:33.962Z,100908.41
2018-11-23T18:24:02.780Z,100911.92
2018-11-23T18:26:31.636Z,100902.83
2018-11-23T18:29:00.795Z,100906.38
2018-11-23T18:31:29.728Z,100901.52
2018-11-23T18:33:59.110Z,100892.83
2018-11-23T18:36:28.159Z,100886.75
2018-11-23T18:38:57.051Z,100884.67
2018-11-23T18:41:25.944Z,100885.11
2018-11-23T18:43:54.785Z,100881.75
2018-11-23T18:46:23.545Z,100880.06
2018-11-23T18:48:52.565Z,100876.27
2018-11-23T18:51:21.425Z,100871.99
2018-11-23T18:53:50.444Z,100871.27
2018-11-23T18:56:19.448Z,100870.11
2018-11-23T18:58:48.861Z,100867.63
2018-11-23T19:01:17.662Z,100863.36
2018-11-23T19:03:46.744Z,100855.97
2018-11-23T19:06:15.622Z,100854.70
2018-11-23T19:08:44.660Z,100852.57
2018-11-23T19:11:13.368Z,100851.36
2018-11-23T19:13:42.213Z,100855.44
2018-11-23T19:16:11.934Z,100854.27
2018-11-23T19:18:49.827Z,100852.09
2018-11-23T19:21:18.746Z,100858.30
2018-11-23T19:23:47.552Z,100856.61
2018-11-23T19:26:16.276Z,100849.70
2018-11-23T19:28:45.055Z,100850.67
2018-11-23T19:31:14.687Z,100851.98
2018-11-23T19:33:43.386Z,100840.17
2018-11-23T19:36:13.188Z,100843.33
2018-11-23T19:38:42.057Z,100845.95
2018-11-23T19:41:10.962Z,100844.16
2018-11-23T19:43:39.814Z,100848.09
2018-11-23T19:46:08.739Z,100841.53
2018-11-23T19:48:37.851Z,100839.35
2018-11-23T19:51:07.016Z,100840.76
2018-11-23T19:53:35.947Z,100838.23
2018-11-23T19:56:05.338Z,100841.34
2018-11-23T19:58:34.965Z,100840.03
2018-11-23T20:01:03.847Z,100835.80
2018-11-23T20:03:33.303Z,100830.22
2018-11-23T20:06:02.818Z,100825.59
2018-11-23T20:08:31.784Z,100825.73
2018-11-23T20:11:01.351Z,100826.30
2018-11-23T20:13:30.288Z,100828.92
2018-11-23T20:15:59.372Z,100820.67
2018-11-23T20:18:28.470Z,100818.59
2018-11-23T20:20:58.664Z,100820.73
2018-11-23T20:23:27.834Z,100822.12
2018-11-23T20:25:57.048Z,100822.17
2018-11-23T20:28:26.194Z,100826.55
2018-11-23T20:30:55.201Z,100818.38
2018-11-23T20:33:24.137Z,100825.50
2018-11-23T20:35:53.052Z,100822.36
2018-11-23T20:38:21.923Z,100811.53
2018-11-23T20:40:51.863Z,100803.31
2018-11-23T20:43:20.858Z,100801.75
2018-11-23T20:45:49.900Z,100791.02
2018-11-23T20:48:18.992Z,100789.84
2018-11-23T20:50:49.552Z,100796.08
2018-11-23T20:53:18.509Z,100791.81
2018-11-23T20:55:47.686Z,100786.70
2018-11-23T20:58:16.485Z,100784.17
2018-11-23T21:00:46.237Z,100780.33
2018-11-23T21:03:15.445Z,100779.06
2018-11-23T21:05:44.409Z,100768.25
2018-11-23T21:08:15.787Z,100773.56
2018-11-23T21:10:45.684Z,100767.11
2018-11-23T21:13:14.957Z,100771.91
2018-11-23T21:15:43.793Z,100780.80
2018-11-23T21:18:12.941Z,100776.40
2018-11-23T21:20:50.655Z,100775.13
2018-11-23T21:23:19.624Z,100778.66
2018-11-23T21:25:49.720Z,100764.70
2018-11-23T21:28:18.622Z,100754.27
2018-11-23T21:30:48.533Z,100758.59
2018-11-23T21:33:17.474Z,100758.20
2018-11-23T21:35:46.717Z,100745.19
2018-11-23T21:38:22.289Z,100746.11
2018-11-23T21:40:51.819Z,100745.63
2018-11-23T21:43:20.924Z,100742.70
2018-11-23T21:45:49.769Z,100754.44
2018-11-23T21:48:18.603Z,100746.31
2018-11-23T21:50:47.550Z,100756.45
2018-11-23T21:53:16.530Z,100755.61
2018-11-23T21:55:45.372Z,100747.02
2018-11-23T21:58:14.337Z,100750.23
2018-11-23T22:00:43.285Z,100749.89
2018-11-23T22:03:12.183Z,100743.94
2018-11-23T22:05:41.133Z,100742.23
2018-11-23T22:08:09.880Z,100740.61
2018-11-23T22:10:38.994Z,100742.00
2018-11-23T22:13:07.971Z,100734.63
2018-11-23T22:15:37.457Z,100734.71
2018-11-23T22:18:06.478Z,100729.52
2018-11-23T22:20:35.545Z,100729.56
2018-11-23T22:23:04.491Z,100732.61
2018-11-23T22:25:33.245Z,100726.62
2018-11-23T22:28:02.726Z,100727.50
2018-11-23T22:30:31.957Z,100721.44
2018-11-23T22:33:00.691Z,100722.75
2018-11-23T22:35:30.574Z,100718.83
2018-11-23T22:37:59.298Z,100718.83
2018-11-23T22:40:29.417Z,100714.11
2018-11-23T22:42:58.890Z,100713.63
2018-11-23T22:45:27.925Z,100708.88
2018-11-23T22:47:57.213Z,100703.22
2018-11-23T22:50:26.078Z,100708.88
2018-11-23T22:52:54.907Z,100697.58
2018-11-23T22:55:23.942Z,100697.58
2018-11-23T22:57:52.772Z,100694.57
2018-11-23T23:00:31.806Z,100695.41
2018-11-23T23:03:00.828Z,100696.72
2018-11-23T23:05:29.980Z,100693.67
2018-11-23T23:07:58.909Z,100692.41
2018-11-23T23:10:29.625Z,100686.34
2018-11-23T23:12:58.384Z,100683.41
2018-11-23T23:15:27.157Z,100685.07
2018-11-23T23:17:56.080Z,100679.45
2018-11-23T23:20:24.961Z,100675.52
2018-11-23T23:22:53.816Z,100678.58
2018-11-23T23:25:22.791Z,100666.89
2018-11-23T23:27:51.925Z,100666.92
2018-11-23T23:30:20.980Z,100663.05
2018-11-23T23:32:50.129Z,100663.09
2018-11-23T23:35:19.221Z,100660.08
2018-11-23T23:37:48.001Z,100660.11
2018-11-23T23:40:17.756Z,100663.56
2018-11-23T23:42:47.014Z,100662.22
2018-11-23T23:45:17.679Z,100664.43
2018-11-23T23:47:46.539Z,100657.54
2018-11-23T23:50:18.242Z,100648.42
2018-11-23T23:52:47.258Z,100652.34
2018-11-23T23:55:16.230Z,100656.27
2018-11-23T23:57:45.938Z,100651.52
